Time;durP1;ratioP1;P1;durP2;ratioP2;P2;SDS_P1;SDS_P2;PMS_P1;PMS_P2;Temp;Humidity;BMP_temperature;BMP_pressure;BME280_temperature;BME280_humidity;BME280_pressure;Samples;Min_cycle;Max_cycle;Signal;HPM_P1;HPM_P2
2023/09/06 00:00:53;;;;;;;9.20;5.90;;;;;;;15.33;63.04;100191.95;107213;1257;72061;-37
2023/09/06 00:03:21;;;;;;;10.20;6.70;;;;;;;15.31;63.14;100196.60;107224;1257;67753;-37
2023/09/06 00:05:49;;;;;;;10.00;6.60;;;;;;;15.30;63.33;100197.53;107204;1257;72829;-37
2023/09/06 00:08:16;;;;;;;8.40;6.30;;;;;;;15.32;63.28;100192.23;107167;1258;60449;-37
2023/09/06 00:10:44;;;;;;;7.30;5.60;;;;;;;15.36;63.19;100190.34;107288;1257;60206;-37
2023/09/06 00:13:13;;;;;;;8.60;5.70;;;;;;;15.36;63.13;100187.23;107210;1257;71767;-37
2023/09/06 00:15:40;;;;;;;9.80;6.80;;;;;;;15.35;63.00;100191.17;107187;1257;67908;-37
2023/09/06 00:18:08;;;;;;;7.30;5.80;;;;;;;15.34;62.87;100194.85;107228;1257;72711;-37
2023/09/06 00:20:36;;;;;;;9.70;6.60;;;;;;;15.32;62.93;100191.47;107152;1257;60139;-37
2023/09/06 00:23:06;;;;;;;9.70;6.70;;;;;;;15.29;63.02;100197.99;107188;1257;59997;-36
2023/09/06 00:25:33;;;;;;;8.20;6.20;;;;;;;15.26;63.12;100194.11;107215;1257;71927;-36
2023/09/06 00:28:06;;;;;;;7.90;6.10;;;;;;;15.22;63.06;100190.79;107218;1257;66647;-37
2023/09/06 00:30:35;;;;;;;10.00;6.10;;;;;;;15.16;63.04;100193.21;107204;1257;72806;-37
2023/09/06 00:33:05;;;;;;;9.30;6.10;;;;;;;15.10;62.96;100193.67;107141;1257;60080;-37
2023/09/06 00:35:33;;;;;;;8.40;6.20;;;;;;;15.06;62.87;100192.20;107265;1257;60246;-37
2023/09/06 00:38:01;;;;;;;8.10;6.10;;;;;;;15.03;62.61;100193.25;107203;1262;73052;-37
2023/09/06 00:40:29;;;;;;;7.90;5.60;;;;;;;14.97;62.55;100194.80;107227;1257;67720;-37
2023/09/06 00:43:00;;;;;;;10.90;6.00;;;;;;;14.90;62.50;100195.17;107256;1257;72764;-38
2023/09/06 00:45:29;;;;;;;8.50;6.30;;;;;;;14.85;62.54;100195.96;107223;1257;60120;-37
2023/09/06 00:47:57;;;;;;;12.50;6.30;;;;;;;14.79;62.64;100198.36;107244;1257;60065;-37
2023/09/06 00:50:28;;;;;;;8.70;5.70;;;;;;;14.73;63.50;100200.85;107192;1257;73044;-38
2023/09/06 00:52:55;;;;;;;8.60;6.30;;;;;;;14.62;64.18;100201.91;107213;1257;65885;-37
2023/09/06 00:55:23;;;;;;;9.60;6.80;;;;;;;14.49;65.04;100204.51;107188;1257;72575;-38
2023/09/06 00:57:51;;;;;;;8.50;6.30;;;;;;;14.37;65.70;100202.59;107220;1257;60112;-36
2023/09/06 01:00:20;;;;;;;9.70;6.50;;;;;;;14.29;66.09;100206.19;107199;1257;60032;-36
2023/09/06 01:02:48;;;;;;;10.20;6.40;;;;;;;14.22;66.33;100201.07;107194;1257;73055;-36
2023/09/06 01:05:16;;;;;;;11.10;6.50;;;;;;;14.22;66.77;100202.09;107152;1257;67673;-36
2023/09/06 01:07:46;;;;;;;11.80;6.90;;;;;;;14.27;66.87;100204.98;107211;1257;71570;-37
2023/09/06 01:10:14;;;;;;;9.00;5.70;;;;;;;14.35;66.71;100208.70;107212;1257;60329;-37
2023/09/06 01:12:41;;;;;;;11.30;7.20;;;;;;;14.40;66.19;100207.87;107188;1257;60314;-37
2023/09/06 01:15:11;;;;;;;8.60;6.40;;;;;;;14.42;65.87;100208.29;107280;1257;72598;-36
2023/09/06 01:17:41;;;;;;;11.20;6.40;;;;;;;14.44;65.47;100200.85;107211;1257;67580;-37
2023/09/06 01:20:15;;;;;;;9.10;6.20;;;;;;;14.46;65.04;100206.56;107241;1257;72681;-37
2023/09/06 01:22:51;;;;;;;8.40;5.70;;;;;;;14.47;64.80;100207.05;107217;1258;60549;-36
2023/09/06 01:25:19;;;;;;;10.80;6.40;;;;;;;14.47;64.40;100206.36;107029;1257;60448;-37
2023/09/06 01:27:47;;;;;;;9.70;6.60;;;;;;;14.46;64.31;100200.80;107139;1257;73361;-37
2023/09/06 01:30:15;;;;;;;10.60;6.60;;;;;;;14.44;64.10;100202.31;107018;1257;67904;-37
2023/09/06 01:32:42;;;;;;;8.40;7.00;;;;;;;14.41;64.12;100200.56;107220;1256;72685;-37
2023/09/06 01:35:10;;;;;;;8.40;6.60;;;;;;;14.40;64.06;100206.85;107141;1257;60423;-37
2023/09/06 01:37:38;;;;;;;9.70;7.10;;;;;;;14.38;63.98;100205.73;107247;1256;60437;-37
2023/09/06 01:40:17;;;;;;;8.40;6.80;;;;;;;14.38;64.12;100204.64;107107;1257;73887;-36
2023/09/06 01:42:45;;;;;;;11.80;6.80;;;;;;;14.41;63.79;100202.67;107177;1257;66507;-37
2023/09/06 01:45:17;;;;;;;9.50;6.80;;;;;;;14.46;63.60;100198.55;107198;1257;71399;-37
2023/09/06 01:47:48;;;;;;;8.80;6.80;;;;;;;14.49;63.51;100203.02;107250;1257;60475;-37
2023/09/06 01:50:19;;;;;;;8.90;6.80;;;;;;;14.51;63.48;100200.41;107231;1258;60444;-37
2023/09/06 01:52:47;;;;;;;9.90;7.20;;;;;;;14.53;63.44;100199.20;107175;1257;73872;-37
2023/09/06 01:55:15;;;;;;;8.80;7.20;;;;;;;14.56;63.26;100199.89;107273;1260;66299;-37
2023/09/06 01:57:43;;;;;;;9.50;6.90;;;;;;;14.57;63.18;100195.84;107309;1256;71386;-37
2023/09/06 02:02:50;;;;;;;9.90;6.40;;;;;;;14.56;64.07;100197.92;107294;1260;60358;-36
2023/09/06 02:05:18;;;;;;;7.30;6.10;;;;;;;14.52;64.97;100196.55;107291;1257;73911;-37
2023/09/06 02:07:46;;;;;;;7.40;6.50;;;;;;;14.49;65.42;100194.84;107193;1257;66603;-37
2023/09/06 02:10:14;;;;;;;8.20;6.50;;;;;;;14.47;65.73;100193.65;107231;1257;71399;-37
2023/09/06 02:12:44;;;;;;;8.50;6.30;;;;;;;14.39;65.96;100195.30;107210;1257;60493;-37
2023/09/06 02:15:14;;;;;;;8.80;6.20;;;;;;;14.31;66.14;100193.58;107276;1256;59164;-37
2023/09/06 02:17:42;;;;;;;;;;;;;;;14.29;66.17;100189.80;107180;1257;74012;-37
2023/09/06 02:20:17;;;;;;;9.70;6.90;;;;;;;14.28;65.94;100188.00;107226;1260;66750;-37
2023/09/06 02:22:55;;;;;;;8.80;6.80;;;;;;;14.25;65.73;100188.71;107240;1257;72708;-37
2023/09/06 02:25:29;;;;;;;9.40;6.50;;;;;;;14.23;65.42;100188.93;107278;1257;60331;-37
2023/09/06 02:27:57;;;;;;;9.10;6.90;;;;;;;14.21;65.52;100189.84;107310;1256;60450;-37
2023/09/06 02:30:25;;;;;;;8.10;6.70;;;;;;;14.20;65.48;100190.74;107289;1257;73906;-37
2023/09/06 02:32:54;;;;;;;8.50;6.40;;;;;;;14.23;65.35;100189.48;107170;1257;67926;-37
2023/09/06 02:35:22;;;;;;;8.60;6.90;;;;;;;14.29;64.95;100193.39;107085;1257;71500;-37
2023/09/06 02:37:49;;;;;;;11.50;7.80;;;;;;;14.30;64.69;100190.45;107156;1257;60381;-37
2023/09/06 02:40:20;;;;;;;9.30;6.60;;;;;;;14.31;64.48;100190.31;107223;1257;60336;-37
2023/09/06 02:42:51;;;;;;;10.00;7.20;;;;;;;14.32;64.31;100191.34;107231;1257;71637;-37
2023/09/06 02:45:22;;;;;;;8.10;6.80;;;;;;;14.32;64.19;100192.36;107214;1256;66606;-37
2023/09/06 02:47:50;;;;;;;10.20;6.90;;;;;;;14.32;64.29;100196.27;107201;1260;72651;-37
2023/09/06 02:50:24;;;;;;;10.90;7.30;;;;;;;14.31;64.27;100194.52;107225;1257;60298;-37
2023/09/06 02:52:56;;;;;;;11.60;7.30;;;;;;;14.28;64.46;100195.17;107227;1257;60434;-37
2023/09/06 02:55:24;;;;;;;8.60;6.70;;;;;;;14.25;64.68;100195.44;107213;1257;72504;-37
2023/09/06 02:57:52;;;;;;;8.90;7.00;;;;;;;14.23;64.64;100196.48;107199;1257;67252;-37
2023/09/06 03:00:25;;;;;;;8.00;6.60;;;;;;;14.21;64.51;100192.95;107215;1257;71468;-37
2023/09/06 03:02:55;;;;;;;9.60;6.50;;;;;;;14.19;64.34;100194.70;107225;1257;60383;-37
2023/09/06 03:05:26;;;;;;;8.60;6.50;;;;;;;14.22;64.26;100191.64;107198;1257;59252;-37
2023/09/06 03:07:55;;;;;;;8.30;6.50;;;;;;;14.28;64.11;100189.33;107212;1257;72587;-37
2023/09/06 03:10:24;;;;;;;7.80;6.50;;;;;;;14.30;64.16;100188.19;107209;1256;66873;-37
2023/09/06 03:12:56;;;;;;;9.60;6.80;;;;;;;14.30;64.19;100184.84;107223;1257;72701;-36
2023/09/06 03:15:28;;;;;;;9.60;6.90;;;;;;;14.30;64.34;100187.89;107214;1257;60533;-37
2023/09/06 03:18:03;;;;;;;9.40;6.80;;;;;;;14.30;64.76;100186.16;107215;1257;60344;-36
2023/09/06 03:20:32;;;;;;;8.70;6.60;;;;;;;14.29;64.93;100186.30;107245;1257;72550;-36
2023/09/06 03:23:12;;;;;;;10.70;7.10;;;;;;;14.26;65.10;100182.59;107164;1257;67788;-37
2023/09/06 03:25:40;;;;;;;9.60;6.50;;;;;;;14.23;65.47;100184.25;107208;1257;72682;-36
2023/09/06 03:28:08;;;;;;;7.40;6.50;;;;;;;14.21;65.58;100181.50;107131;1257;62055;-36
2023/09/06 03:30:38;;;;;;;8.40;6.50;;;;;;;14.24;65.53;100181.30;107089;1263;60194;-37
2023/09/06 03:33:06;;;;;;;9.40;6.40;;;;;;;14.28;65.63;100185.29;107054;1257;73900;-37
2023/09/06 03:35:34;;;;;;;8.40;6.40;;;;;;;14.29;65.65;100184.11;107200;1257;67615;-36
2023/09/06 03:38:02;;;;;;;7.60;6.50;;;;;;;14.28;65.73;100186.52;107134;1259;71446;-37
2023/09/06 03:40:37;;;;;;;10.30;6.50;;;;;;;14.28;66.14;100186.60;107186;1257;61026;-37
2023/09/06 03:43:19;;;;;;;9.00;6.50;;;;;;;14.28;66.20;100192.13;107162;1257;60533;-37
2023/09/06 03:45:53;;;;;;;8.60;6.50;;;;;;;14.26;66.25;100189.45;107201;1257;73899;-36
2023/09/06 03:48:23;;;;;;;7.60;6.10;;;;;;;14.25;66.33;100191.15;107189;1257;66626;-37
2023/09/06 03:50:55;;;;;;;7.60;6.10;;;;;;;14.24;66.33;100193.92;107169;1257;72657;-37
2023/09/06 03:53:25;;;;;;;7.50;5.80;;;;;;;14.26;66.34;100195.38;107283;1257;62210;-37
2023/09/06 03:55:56;;;;;;;9.40;6.10;;;;;;;14.31;66.51;100196.79;107201;1257;60193;-36
2023/09/06 03:58:34;;;;;;;7.90;5.90;;;;;;;14.32;66.94;100202.89;107220;1256;72554;-37
2023/09/06 04:01:04;;;;;;;8.20;6.60;;;;;;;14.28;66.92;100192.36;107227;1257;67903;-37
2023/09/06 04:03:34;;;;;;;7.90;6.30;;;;;;;14.34;66.75;100208.38;107160;1262;72770;-37
2023/09/06 04:06:03;;;;;;;9.40;5.90;;;;;;;14.34;66.72;100206.34;107257;1257;60447;-36
2023/09/06 04:08:33;;;;;;;7.60;5.90;;;;;;;14.37;66.35;100207.42;107205;1257;60500;-37
2023/09/06 04:11:02;;;;;;;8.10;5.90;;;;;;;14.35;65.99;100207.60;107173;1257;74330;-36
2023/09/06 04:13:29;;;;;;;7.20;5.80;;;;;;;14.32;65.67;100205.92;107120;1262;68360;-36
2023/09/06 04:15:57;;;;;;;8.00;6.00;;;;;;;14.30;65.59;100205.73;107203;1258;72515;-36
2023/09/06 04:18:28;;;;;;;6.90;5.30;;;;;;;14.33;65.49;100208.27;107091;1262;61685;-36
2023/09/06 04:20:59;;;;;;;;;;;;;;;14.39;65.38;100207.86;107249;1260;60296;-37
2023/09/06 04:23:28;;;;;;;8.00;5.50;;;;;;;14.48;65.19;100213.84;107249;1257;73903;-37
2023/09/06 04:25:58;;;;;;;6.80;5.30;;;;;;;14.52;65.15;100212.52;107250;1257;66331;-37
2023/09/06 04:28:28;;;;;;;7.30;5.40;;;;;;;14.57;64.95;100215.40;107228;1257;71424;-37
2023/09/06 04:30:58;;;;;;;6.90;5.30;;;;;;;14.62;64.75;100217.20;107231;1257;60255;-37
2023/09/06 04:33:30;;;;;;;8.90;5.70;;;;;;;14.67;64.53;100218.39;107192;1257;60153;-37
2023/09/06 04:36:07;;;;;;;6.90;5.70;;;;;;;14.72;64.46;100214.95;107199;1258;72556;-37
2023/09/06 04:38:35;;;;;;;6.50;5.60;;;;;;;14.76;64.20;100216.41;107204;1257;67102;-37
2023/09/06 04:41:03;;;;;;;9.20;6.60;;;;;;;14.78;64.06;100216.52;107241;1257;72708;-37
2023/09/06 04:43:44;;;;;;;8.50;5.40;;;;;;;14.82;64.08;100217.75;107168;1260;60479;-37
2023/09/06 04:46:12;;;;;;;8.70;6.10;;;;;;;14.81;64.07;100219.54;107189;1257;60341;-38
2023/09/06 04:48:46;;;;;;;9.10;5.80;;;;;;;14.82;64.19;100221.35;107245;1257;72578;-37
2023/09/06 04:51:14;;;;;;;10.00;5.30;;;;;;;14.88;64.24;100225.66;107203;1257;66369;-37
2023/09/06 04:53:43;;;;;;;8.70;5.40;;;;;;;14.99;64.21;100223.23;107230;1257;70437;-37
2023/09/06 04:56:13;;;;;;;9.10;5.80;;;;;;;15.05;63.86;100223.02;107222;1257;60529;-37
2023/09/06 04:58:49;;;;;;;7.20;5.40;;;;;;;15.10;63.68;100221.52;107225;1257;60536;-38
2023/09/06 05:01:16;;;;;;;8.10;5.80;;;;;;;15.12;63.50;100223.82;107166;1262;72641;-37
2023/09/06 05:03:45;;;;;;;8.30;6.10;;;;;;;15.14;63.58;100224.48;107223;1257;65356;-37
2023/09/06 05:06:13;;;;;;;9.40;6.40;;;;;;;15.16;63.38;100225.89;107217;1257;72721;-37
2023/09/06 05:08:41;;;;;;;7.90;5.20;;;;;;;15.18;63.54;100219.92;107237;1257;60222;-37
2023/09/06 05:11:18;;;;;;;6.90;5.60;;;;;;;15.19;63.67;100222.05;107224;1257;60445;-37
2023/09/06 05:13:48;;;;;;;7.30;5.40;;;;;;;15.22;63.91;100224.73;107229;1257;73798;-35
2023/09/06 05:16:16;;;;;;;9.30;5.20;;;;;;;15.27;64.04;100221.76;107266;1257;67527;-36
2023/09/06 05:18:44;;;;;;;7.50;5.20;;;;;;;15.37;63.87;100223.14;107186;1258;71404;-36
2023/09/06 05:21:17;;;;;;;7.20;5.70;;;;;;;15.51;63.79;100226.54;107157;1257;60339;-36
2023/09/06 05:23:45;;;;;;;7.80;5.50;;;;;;;15.62;63.64;100226.23;107164;1257;60648;-36
2023/09/06 05:26:13;;;;;;;8.00;5.50;;;;;;;15.74;63.52;100226.68;107207;1257;72312;-36
2023/09/06 05:28:44;;;;;;;7.30;5.10;;;;;;;15.86;63.12;100227.98;107230;1256;66758;-37
2023/09/06 05:31:12;;;;;;;7.70;5.60;;;;;;;15.95;63.05;100225.21;107178;1257;71401;-36
2023/09/06 05:33:43;;;;;;;7.60;4.90;;;;;;;16.09;62.75;100225.59;107118;1257;60240;-36
2023/09/06 05:36:12;;;;;;;7.40;5.30;;;;;;;16.22;62.63;100222.27;107240;1257;59697;-36
2023/09/06 05:38:41;;;;;;;7.40;4.90;;;;;;;16.34;62.42;100216.61;107257;1257;72604;-36
2023/09/06 05:41:09;;;;;;;8.60;5.10;;;;;;;16.47;62.07;100216.48;107190;1257;66337;-36
2023/09/06 05:43:40;;;;;;;7.40;5.50;;;;;;;16.59;62.01;100216.45;107207;1257;71353;-36
2023/09/06 05:46:08;;;;;;;9.30;5.10;;;;;;;16.69;62.12;100214.83;107100;1257;60498;-36
2023/09/06 05:48:57;;;;;;;6.30;4.50;;;;;;;16.89;61.88;100218.73;107216;1257;59326;-36
2023/09/06 05:51:25;;;;;;;6.30;4.90;;;;;;;17.10;61.57;100222.16;107147;1256;73856;-37
2023/09/06 05:53:53;;;;;;;6.40;5.00;;;;;;;17.27;61.34;100222.10;107193;1257;66291;-37
2023/09/06 05:56:21;;;;;;;5.80;4.30;;;;;;;17.43;61.36;100226.26;107256;1257;72757;-37
2023/09/06 05:58:48;;;;;;;6.10;4.20;;;;;;;17.60;60.66;100224.23;107212;1257;60549;-38
2023/09/06 06:01:18;;;;;;;7.80;4.30;;;;;;;17.77;60.03;100224.16;107258;1257;59662;-37
2023/09/06 06:03:46;;;;;;;6.10;4.20;;;;;;;17.91;59.38;100223.10;107039;1257;72877;-37
2023/09/06 06:06:16;;;;;;;4.50;3.60;;;;;;;18.04;58.50;100225.95;107208;1257;66411;-37
2023/09/06 06:08:43;;;;;;;6.40;3.30;;;;;;;18.12;57.74;100228.65;107100;1257;72613;-37
2023/09/06 06:11:11;;;;;;;5.90;4.40;;;;;;;18.19;57.33;100228.11;107246;1257;60366;-37
2023/09/06 06:13:39;;;;;;;6.20;4.10;;;;;;;18.26;57.20;100231.11;107250;1257;60891;-37
2023/09/06 06:16:08;;;;;;;5.50;4.00;;;;;;;18.31;56.56;100231.59;107232;1257;73065;-37
2023/09/06 06:18:36;;;;;;;6.30;4.10;;;;;;;18.34;56.36;100231.98;107280;1257;66438;-37
2023/09/06 06:21:03;;;;;;;7.70;4.40;;;;;;;18.36;56.28;100237.63;107200;1262;72698;-37
2023/09/06 06:23:31;;;;;;;6.60;4.10;;;;;;;18.37;55.79;100241.31;107189;1261;60351;-37
2023/09/06 06:25:59;;;;;;;6.80;4.40;;;;;;;18.38;55.76;100240.23;107203;1256;60309;-37
2023/09/06 06:28:27;;;;;;;6.00;4.10;;;;;;;18.40;55.67;100236.61;107202;1257;72567;-37
2023/09/06 06:30:55;;;;;;;6.20;4.60;;;;;;;18.44;55.74;100235.76;107244;1257;67611;-37
2023/09/06 06:33:23;;;;;;;7.20;4.60;;;;;;;18.50;55.56;100237.41;107157;1257;72872;-37
2023/09/06 06:35:51;;;;;;;8.50;5.00;;;;;;;18.57;54.73;100237.13;107202;1257;60364;-38
2023/09/06 06:38:18;;;;;;;5.40;4.40;;;;;;;18.61;54.62;100233.84;107213;1257;60506;-37
2023/09/06 06:40:46;;;;;;;7.40;4.40;;;;;;;18.67;55.01;100235.48;107200;1257;73922;-37
2023/09/06 06:43:14;;;;;;;7.50;4.50;;;;;;;18.78;54.94;100235.55;107199;1257;68288;-37
2023/09/06 06:45:53;;;;;;;7.50;4.90;;;;;;;18.90;55.02;100225.51;107205;1262;72687;-37
2023/09/06 06:48:21;;;;;;;7.10;4.80;;;;;;;19.07;55.03;100227.05;107168;1257;60458;-37
2023/09/06 06:50:49;;;;;;;5.70;4.40;;;;;;;19.24;55.04;100224.96;107208;1261;60352;-38
2023/09/06 06:53:16;;;;;;;9.20;4.60;;;;;;;19.44;54.79;100227.05;107231;1262;72666;-38
2023/09/06 06:55:45;;;;;;;7.40;4.90;;;;;;;19.66;54.18;100226.89;107256;1257;67870;-37
2023/09/06 06:58:14;;;;;;;9.30;4.50;;;;;;;19.85;53.72;100228.63;107166;1257;72746;-36
2023/09/06 07:00:41;;;;;;;7.00;4.70;;;;;;;20.03;52.76;100226.56;107185;1257;60379;-36
2023/09/06 07:03:09;;;;;;;8.10;4.70;;;;;;;20.17;52.72;100227.34;107217;1257;60625;-36
2023/09/06 07:05:37;;;;;;;5.50;4.10;;;;;;;20.28;52.29;100221.45;107235;1257;73830;-36
2023/09/06 07:08:05;;;;;;;6.90;4.40;;;;;;;20.39;51.80;100225.57;107201;1257;67603;-36
2023/09/06 07:10:33;;;;;;;6.90;4.40;;;;;;;20.48;50.86;100222.59;107227;1257;73140;-36
2023/09/06 07:13:01;;;;;;;5.30;3.90;;;;;;;20.51;50.65;100218.17;107167;1257;60363;-36
2023/09/06 07:15:28;;;;;;;6.60;4.40;;;;;;;20.48;50.63;100212.34;107209;1257;60032;-36
2023/09/06 07:17:56;;;;;;;6.80;4.50;;;;;;;20.56;50.49;100219.78;107233;1257;72655;-36
2023/09/06 07:20:24;;;;;;;5.40;4.10;;;;;;;20.58;50.03;100215.90;107223;1257;67608;-37
2023/09/06 07:22:52;;;;;;;6.00;4.30;;;;;;;20.58;50.27;100218.25;107244;1257;72650;-37
2023/09/06 07:25:20;;;;;;;6.10;4.00;;;;;;;20.62;50.59;100216.73;107206;1262;60562;-37
2023/09/06 07:27:47;;;;;;;5.50;3.70;;;;;;;20.69;50.32;100222.80;107298;1257;60335;-37
2023/09/06 07:30:15;;;;;;;5.70;3.90;;;;;;;20.77;49.97;100219.28;107235;1257;73841;-37
2023/09/06 07:32:43;;;;;;;5.60;3.60;;;;;;;20.81;49.17;100223.02;107255;1257;67985;-37
2023/09/06 07:35:12;;;;;;;6.10;3.80;;;;;;;20.83;48.81;100217.73;107192;1262;72658;-37
2023/09/06 07:37:41;;;;;;;7.90;4.00;;;;;;;20.85;48.79;100212.52;107219;1259;60338;-37
2023/09/06 07:40:10;;;;;;;6.60;4.00;;;;;;;20.89;49.08;100212.01;107305;1257;60328;-37
2023/09/06 07:42:40;;;;;;;6.40;3.90;;;;;;;20.95;49.09;100208.01;107230;1257;73841;-37
2023/09/06 07:45:09;;;;;;;6.30;4.00;;;;;;;21.03;49.15;100211.00;107239;1257;66300;-37
2023/09/06 07:47:36;;;;;;;5.70;3.90;;;;;;;21.10;49.12;100213.92;107211;1258;71459;-37
2023/09/06 07:50:05;;;;;;;6.30;3.80;;;;;;;21.16;48.95;100213.10;107197;1257;60461;-37
2023/09/06 07:52:33;;;;;;;7.80;4.20;;;;;;;21.21;49.12;100214.16;107281;1257;60308;-37
2023/09/06 07:55:01;;;;;;;5.40;3.60;;;;;;;21.29;49.26;100213.61;107213;1262;72667;-38
2023/09/06 07:57:28;;;;;;;6.60;4.00;;;;;;;21.38;48.92;100215.15;107180;1257;67605;-37
2023/09/06 07:59:56;;;;;;;5.30;4.10;;;;;;;21.45;48.91;100212.86;107174;1257;72697;-38
2023/09/06 08:02:24;;;;;;;5.00;3.90;;;;;;;21.53;48.66;100211.80;107239;1257;60354;-38
2023/09/06 08:04:51;;;;;;;5.10;3.70;;;;;;;21.62;48.33;100207.30;107153;1257;60041;-38
2023/09/06 08:07:21;;;;;;;5.30;3.90;;;;;;;21.69;48.65;100204.77;107211;1257;73847;-38
2023/09/06 08:09:49;;;;;;;5.00;3.80;;;;;;;21.79;48.80;100208.65;107252;1262;69894;-38
2023/09/06 08:12:16;;;;;;;6.70;4.10;;;;;;;21.90;47.98;100207.64;107213;1257;72721;-38
2023/09/06 08:14:44;;;;;;;6.00;3.70;;;;;;;22.01;47.25;100203.02;107209;1260;60654;-38
2023/09/06 08:17:12;;;;;;;5.50;3.80;;;;;;;22.11;47.32;100202.23;107154;1257;60446;-38
2023/09/06 08:19:41;;;;;;;5.00;3.50;;;;;;;22.21;46.97;100199.96;107214;1257;73845;-38
2023/09/06 08:22:08;;;;;;;5.60;3.80;;;;;;;22.33;47.14;100197.64;107186;1258;66622;-38
2023/09/06 08:24:36;;;;;;;5.30;3.70;;;;;;;22.45;47.31;100195.31;107202;1257;72675;-38
2023/09/06 08:27:06;;;;;;;4.50;3.60;;;;;;;22.59;46.95;100190.50;107160;1258;60311;-38
2023/09/06 08:29:33;;;;;;;8.40;3.90;;;;;;;22.72;46.15;100193.23;107199;1257;60422;-38
2023/09/06 08:32:01;;;;;;;6.60;4.10;;;;;;;22.83;45.47;100190.05;107220;1257;73953;-38
2023/09/06 08:34:29;;;;;;;5.70;3.50;;;;;;;22.91;45.32;100186.89;107195;1262;67580;-38
2023/09/06 08:36:57;;;;;;;4.90;3.90;;;;;;;23.02;45.07;100190.02;107198;1258;72706;-38
2023/09/06 08:39:25;;;;;;;5.70;3.70;;;;;;;23.09;45.02;100189.31;107192;1257;60462;-38
2023/09/06 08:41:53;;;;;;;6.60;3.80;;;;;;;23.16;45.15;100181.13;107163;1257;60493;-38
2023/09/06 08:44:21;;;;;;;5.50;3.30;;;;;;;23.28;44.95;100183.83;107139;1257;73875;-38
2023/09/06 08:46:49;;;;;;;7.50;3.70;;;;;;;23.40;44.76;100180.73;107211;1257;66846;-38
2023/09/06 08:49:17;;;;;;;7.80;4.00;;;;;;;23.48;44.06;100181.54;107027;1257;72724;-38
2023/09/06 08:51:44;;;;;;;6.80;4.20;;;;;;;23.55;44.39;100180.54;107090;1257;59614;-38
2023/09/06 08:54:13;;;;;;;6.90;4.00;;;;;;;23.65;44.05;100180.39;107058;1264;60079;-38
2023/09/06 08:56:41;;;;;;;6.60;3.80;;;;;;;23.78;44.35;100177.34;107209;1257;72499;-38
2023/09/06 08:59:09;;;;;;;6.60;3.90;;;;;;;23.96;44.18;100174.50;107217;1262;67934;-38
2023/09/06 09:01:37;;;;;;;6.00;4.00;;;;;;;24.14;43.88;100174.48;107216;1261;72741;-37
2023/09/06 09:04:06;;;;;;;6.00;4.00;;;;;;;24.30;43.37;100170.48;107063;1257;60322;-36
2023/09/06 09:06:34;;;;;;;5.50;4.00;;;;;;;24.45;43.43;100174.70;107218;1257;60451;-36
2023/09/06 09:09:16;;;;;;;6.70;3.50;;;;;;;24.61;42.76;100162.89;107209;1261;73863;-36
2023/09/06 09:11:49;;;;;;;5.40;3.50;;;;;;;24.78;41.65;100172.03;107235;1257;67913;-36
2023/09/06 09:14:24;;;;;;;4.20;3.20;;;;;;;24.95;40.78;100165.04;106981;1261;299867;-37
2023/09/06 09:17:56;;;;;;;4.90;2.80;;;;;;;25.25;39.84;100161.58;104352;1289;601145;-36
2023/09/06 09:20:30;;;;;;;4.20;2.80;;;;;;;25.41;39.20;100155.11;106655;1266;60065;-36
2023/09/06 09:23:02;;;;;;;6.30;3.20;;;;;;;25.56;39.06;100158.02;106688;1262;62956;-36
2023/09/06 09:25:30;;;;;;;4.30;3.10;;;;;;;25.65;38.62;100152.11;106717;1264;71690;-36
2023/09/06 09:27:58;;;;;;;4.60;3.30;;;;;;;25.75;38.56;100149.90;106803;1260;67864;-36
2023/09/06 09:30:31;;;;;;;6.50;3.40;;;;;;;25.85;38.30;100151.02;106685;1260;173944;-37
2023/09/06 09:33:01;;;;;;;6.30;3.10;;;;;;;25.87;38.79;100151.59;107027;1258;60038;-37
2023/09/06 09:35:31;;;;;;;6.70;3.20;;;;;;;25.91;38.68;100151.45;107092;1257;59208;-37
2023/09/06 09:37:59;;;;;;;;;;;;;;;25.97;38.40;100152.80;107051;1258;72309;-37
2023/09/06 09:40:32;;;;;;;3.80;3.00;;;;;;;26.03;38.35;100151.96;107063;1257;67883;-37
2023/09/06 09:43:19;;;;;;;4.60;3.40;;;;;;;26.14;37.78;100150.80;107055;1263;72671;-38
2023/09/06 09:45:47;;;;;;;4.40;3.20;;;;;;;26.25;37.36;100146.99;107061;1258;60101;-38
2023/09/06 09:48:17;;;;;;;4.00;3.20;;;;;;;26.36;37.53;100149.06;107046;1260;60028;-38
2023/09/06 09:50:46;;;;;;;4.20;3.00;;;;;;;26.38;36.58;100149.48;107006;1258;75346;-38
2023/09/06 09:53:15;;;;;;;;;;;;;;;26.25;36.86;100154.84;106983;1257;67558;-38
2023/09/06 09:55:51;;;;;;;5.00;3.10;;;;;;;25.98;37.72;100154.90;106950;1263;72723;-38
2023/09/06 09:58:19;;;;;;;6.30;3.10;;;;;;;25.74;37.98;100154.85;107047;1263;60120;-38
2023/09/06 10:00:50;;;;;;;5.70;2.90;;;;;;;25.63;38.24;100150.50;107125;1257;59602;-38
2023/09/06 10:03:18;;;;;;;4.40;3.20;;;;;;;25.68;38.46;100149.64;107074;1257;73041;-37
2023/09/06 10:05:47;;;;;;;4.10;3.00;;;;;;;25.78;37.35;100147.83;107045;1257;67900;-38
2023/09/06 10:08:15;;;;;;;4.90;3.00;;;;;;;25.83;37.69;100147.96;107037;1260;72738;-38
2023/09/06 10:10:43;;;;;;;4.70;3.30;;;;;;;25.96;37.43;100155.13;107015;1258;59528;-38
2023/09/06 10:13:11;;;;;;;3.60;2.60;;;;;;;26.16;37.90;100151.86;106884;1258;60109;-37
2023/09/06 10:15:38;;;;;;;4.00;2.80;;;;;;;26.45;37.69;100145.46;107297;1262;73055;-38
2023/09/06 10:18:06;;;;;;;2.80;2.50;;;;;;;26.78;37.21;100148.84;107379;1254;67585;-37
2023/09/06 10:20:37;;;;;;;5.50;2.50;;;;;;;27.05;36.55;100152.91;107363;1254;72159;-38
2023/09/06 10:23:05;;;;;;;5.30;2.70;;;;;;;27.11;35.46;100151.33;107542;1254;60121;-38
2023/09/06 10:25:41;;;;;;;4.20;2.50;;;;;;;27.04;35.86;100148.80;107540;1259;59922;-38
2023/09/06 10:28:09;;;;;;;2.90;2.70;;;;;;;27.07;35.96;100147.98;107379;1254;72210;-37
2023/09/06 10:30:44;;;;;;;4.00;2.60;;;;;;;27.21;35.93;100146.76;107479;1253;67595;-37
2023/09/06 10:33:38;;;;;;;4.50;2.80;;;;;;;27.36;34.98;100148.86;107469;1259;71336;-38
2023/09/06 10:36:08;;;;;;;4.20;2.80;;;;;;;27.29;35.01;100143.77;107478;1256;60053;-37
2023/09/06 10:38:55;;;;;;;3.80;2.80;;;;;;;27.17;35.23;100148.27;107507;1254;59614;-37
2023/09/06 10:41:24;;;;;;;4.90;3.40;;;;;;;27.12;36.13;100140.88;107537;1254;71842;-37
2023/09/06 10:43:59;;;;;;;3.80;3.00;;;;;;;27.20;36.17;100140.35;107528;1254;66424;-37
2023/09/06 10:46:27;;;;;;;4.70;2.90;;;;;;;27.28;35.35;100135.47;107466;1256;74969;-37
2023/09/06 10:49:25;;;;;;;5.70;3.20;;;;;;;27.26;35.29;100139.73;107500;1254;60112;-37
2023/09/06 10:52:10;;;;;;;4.30;2.80;;;;;;;27.14;35.90;100138.83;107479;1254;59228;-37
2023/09/06 10:54:42;;;;;;;3.80;2.60;;;;;;;27.06;36.22;100136.02;107510;1254;71068;-37
2023/09/06 10:57:11;;;;;;;3.80;2.80;;;;;;;26.99;36.63;100132.81;107484;1253;68101;-37
2023/09/06 10:59:43;;;;;;;3.30;2.60;;;;;;;26.92;36.56;100130.59;107558;1254;71406;-37
2023/09/06 11:02:26;;;;;;;5.20;2.60;;;;;;;26.88;37.00;100131.02;107448;1254;59608;-37
2023/09/06 11:05:16;;;;;;;3.70;2.30;;;;;;;27.01;36.53;100128.89;107489;1254;60082;-38
2023/09/06 11:07:44;;;;;;;5.00;2.60;;;;;;;27.28;35.91;100126.31;107472;1254;73066;-37
2023/09/06 11:10:23;;;;;;;2.80;2.40;;;;;;;27.49;35.27;100127.02;107501;1253;67614;-37
2023/09/06 11:12:54;;;;;;;2.60;2.20;;;;;;;27.64;34.65;100124.53;107501;1257;72776;-37
2023/09/06 11:15:23;;;;;;;3.50;2.60;;;;;;;27.69;34.05;100115.71;107478;1254;60141;-37
2023/09/06 11:17:57;;;;;;;17.00;3.30;;;;;;;27.62;34.31;100113.41;107454;1253;60571;-37
2023/09/06 11:20:24;;;;;;;3.70;2.70;;;;;;;27.53;35.11;100116.80;107506;1254;73087;-38
2023/09/06 11:22:54;;;;;;;4.00;2.50;;;;;;;27.42;35.34;100113.43;107465;1254;69695;-38
2023/09/06 11:25:22;;;;;;;4.10;2.50;;;;;;;27.30;35.14;100111.30;107470;1257;72727;-38
2023/09/06 11:27:50;;;;;;;5.50;2.60;;;;;;;27.13;35.40;100100.30;107469;1256;60114;-38
2023/09/06 11:30:21;;;;;;;5.00;2.70;;;;;;;27.21;36.00;100099.34;107516;1254;59845;-38
2023/09/06 11:32:56;;;;;;;3.50;2.40;;;;;;;27.52;36.10;100099.09;107474;1254;73161;-38